sensor_id;sensor_type;location;lat;lon;timestamp;temperature;humidity
5689;DHT22;2869;50.432;8.680;2022-07-25T00:00:02;20.80;99.90
5689;DHT22;2869;50.432;8.680;2022-07-25T00:02:29;20.70;99.90
5689;DHT22;2869;50.432;8.680;2022-07-25T00:04:56;20.70;99.90
5689;DHT22;2869;50.432;8.680;2022-07-25T00:07:23;20.60;99.90
5689;DHT22;2869;50.432;8.680;2022-07-25T00:09:49;20.60;99.90
5689;DHT22;2869;50.432;8.680;2022-07-25T00:12:18;20.60;99.90
5689;DHT22;2869;50.432;8.680;2022-07-25T00:14:45;20.60;99.90
5689;DHT22;2869;50.432;8.680;2022-07-25T00:17:12;20.60;99.90
5689;DHT22;2869;50.432;8.680;2022-07-25T00:19:39;20.50;99.90
5689;DHT22;2869;50.432;8.680;2022-07-25T00:22:06;20.50;99.90
5689;DHT22;2869;50.432;8.680;2022-07-25T00:24:33;20.60;99.90
5689;DHT22;2869;50.432;8.680;2022-07-25T00:26:59;20.40;99.90
5689;DHT22;2869;50.432;8.680;2022-07-25T00:29:28;20.30;99.90
5689;DHT22;2869;50.432;8.680;2022-07-25T00:31:55;20.30;99.90
5689;DHT22;2869;50.432;8.680;2022-07-25T00:34:21;20.30;99.90
5689;DHT22;2869;50.432;8.680;2022-07-25T00:36:48;20.30;99.90
5689;DHT22;2869;50.432;8.680;2022-07-25T00:39:15;20.20;99.90
5689;DHT22;2869;50.432;8.680;2022-07-25T00:41:42;20.20;99.90
5689;DHT22;2869;50.432;8.680;2022-07-25T00:44:09;20.10;99.90
5689;DHT22;2869;50.432;8.680;2022-07-25T00:46:38;20.10;99.90
5689;DHT22;2869;50.432;8.680;2022-07-25T00:49:05;20.10;99.90
5689;DHT22;2869;50.432;8.680;2022-07-25T00:51:31;20.10;99.90
5689;DHT22;2869;50.432;8.680;2022-07-25T00:53:59;20.10;99.90
5689;DHT22;2869;50.432;8.680;2022-07-25T00:56:26;20.10;99.90
5689;DHT22;2869;50.432;8.680;2022-07-25T00:58:53;20.00;99.90
5689;DHT22;2869;50.432;8.680;2022-07-25T01:01:20;19.90;99.90
5689;DHT22;2869;50.432;8.680;2022-07-25T01:03:48;20.00;99.90
5689;DHT22;2869;50.432;8.680;2022-07-25T01:06:15;19.90;99.90
5689;DHT22;2869;50.432;8.680;2022-07-25T01:08:42;19.80;99.90
5689;DHT22;2869;50.432;8.680;2022-07-25T01:11:09;19.80;99.90
5689;DHT22;2869;50.432;8.680;2022-07-25T01:13:36;19.80;99.90
5689;DHT22;2869;50.432;8.680;2022-07-25T01:16:03;19.80;99.90
5689;DHT22;2869;50.432;8.680;2022-07-25T01:18:30;19.80;99.90
5689;DHT22;2869;50.432;8.680;2022-07-25T01:21:00;19.80;99.90
5689;DHT22;2869;50.432;8.680;2022-07-25T01:23:27;19.70;99.90
5689;DHT22;2869;50.432;8.680;2022-07-25T01:25:53;19.70;99.90
5689;DHT22;2869;50.432;8.680;2022-07-25T01:28:20;19.70;99.90
5689;DHT22;2869;50.432;8.680;2022-07-25T01:30:47;19.70;99.90
5689;DHT22;2869;50.432;8.680;2022-07-25T01:33:14;19.70;99.90
5689;DHT22;2869;50.432;8.680;2022-07-25T01:35:42;19.70;99.90
5689;DHT22;2869;50.432;8.680;2022-07-25T01:38:10;19.60;99.90
5689;DHT22;2869;50.432;8.680;2022-07-25T01:40:37;19.50;99.90
5689;DHT22;2869;50.432;8.680;2022-07-25T01:43:04;19.40;99.90
5689;DHT22;2869;50.432;8.680;2022-07-25T01:45:30;19.30;99.90
5689;DHT22;2869;50.432;8.680;2022-07-25T01:47:57;19.30;99.90
5689;DHT22;2869;50.432;8.680;2022-07-25T01:50:25;19.30;99.90
5689;DHT22;2869;50.432;8.680;2022-07-25T01:52:51;19.30;99.90
5689;DHT22;2869;50.432;8.680;2022-07-25T01:55:19;19.30;99.90
5689;DHT22;2869;50.432;8.680;2022-07-25T01:57:46;19.30;99.90
5689;DHT22;2869;50.432;8.680;2022-07-25T02:00:14;19.30;99.90
5689;DHT22;2869;50.432;8.680;2022-07-25T02:02:42;19.30;99.90
5689;DHT22;2869;50.432;8.680;2022-07-25T02:05:10;19.40;99.90
5689;DHT22;2869;50.432;8.680;2022-07-25T02:07:37;19.30;99.90
5689;DHT22;2869;50.432;8.680;2022-07-25T02:10:06;19.30;99.90
5689;DHT22;2869;50.432;8.680;2022-07-25T02:12:34;19.40;99.90
5689;DHT22;2869;50.432;8.680;2022-07-25T02:15:01;19.30;99.90
5689;DHT22;2869;50.432;8.680;2022-07-25T02:17:27;19.30;99.90
5689;DHT22;2869;50.432;8.680;2022-07-25T02:19:54;19.30;99.90
5689;DHT22;2869;50.432;8.680;2022-07-25T02:22:21;19.30;99.90
5689;DHT22;2869;50.432;8.680;2022-07-25T02:24:47;19.30;99.90
5689;DHT22;2869;50.432;8.680;2022-07-25T02:27:14;19.30;99.90
5689;DHT22;2869;50.432;8.680;2022-07-25T02:29:42;19.30;99.90
5689;DHT22;2869;50.432;8.680;2022-07-25T02:32:09;19.30;99.90
5689;DHT22;2869;50.432;8.680;2022-07-25T02:34:35;19.30;99.90
5689;DHT22;2869;50.432;8.680;2022-07-25T02:37:02;19.20;99.90
5689;DHT22;2869;50.432;8.680;2022-07-25T02:39:28;19.20;99.90
5689;DHT22;2869;50.432;8.680;2022-07-25T02:41:55;19.10;99.90
5689;DHT22;2869;50.432;8.680;2022-07-25T02:44:22;19.10;99.90
5689;DHT22;2869;50.432;8.680;2022-07-25T02:46:50;19.10;99.90
5689;DHT22;2869;50.432;8.680;2022-07-25T02:49:16;19.10;99.90
5689;DHT22;2869;50.432;8.680;2022-07-25T02:51:43;19.00;99.90
5689;DHT22;2869;50.432;8.680;2022-07-25T02:54:10;18.90;99.90
5689;DHT22;2869;50.432;8.680;2022-07-25T02:56:36;18.90;99.90
5689;DHT22;2869;50.432;8.680;2022-07-25T02:59:03;18.80;99.90
5689;DHT22;2869;50.432;8.680;2022-07-25T03:01:30;18.80;99.90
5689;DHT22;2869;50.432;8.680;2022-07-25T03:03:57;18.80;99.90
5689;DHT22;2869;50.432;8.680;2022-07-25T03:06:24;18.80;99.90
5689;DHT22;2869;50.432;8.680;2022-07-25T03:08:51;18.70;99.90
5689;DHT22;2869;50.432;8.680;2022-07-25T03:11:17;18.70;99.90
5689;DHT22;2869;50.432;8.680;2022-07-25T03:13:44;18.70;99.90
5689;DHT22;2869;50.432;8.680;2022-07-25T03:16:11;18.60;99.90
5689;DHT22;2869;50.432;8.680;2022-07-25T03:18:37;18.60;99.90
5689;DHT22;2869;50.432;8.680;2022-07-25T03:21:06;18.70;99.90
5689;DHT22;2869;50.432;8.680;2022-07-25T03:23:32;18.60;99.90
5689;DHT22;2869;50.432;8.680;2022-07-25T03:25:59;18.60;99.90
5689;DHT22;2869;50.432;8.680;2022-07-25T03:28:26;18.60;99.90
5689;DHT22;2869;50.432;8.680;2022-07-25T03:30:53;18.60;99.90
5689;DHT22;2869;50.432;8.680;2022-07-25T03:33:20;18.60;99.90
5689;DHT22;2869;50.432;8.680;2022-07-25T03:35:47;18.60;99.90
5689;DHT22;2869;50.432;8.680;2022-07-25T03:38:15;18.60;99.90
5689;DHT22;2869;50.432;8.680;2022-07-25T03:40:41;18.60;99.90
5689;DHT22;2869;50.432;8.680;2022-07-25T03:43:08;18.70;99.90
5689;DHT22;2869;50.432;8.680;2022-07-25T03:45:35;18.60;99.90
5689;DHT22;2869;50.432;8.680;2022-07-25T03:48:01;18.70;99.90
5689;DHT22;2869;50.432;8.680;2022-07-25T03:50:28;18.60;99.90
5689;DHT22;2869;50.432;8.680;2022-07-25T03:52:55;18.60;99.90
5689;DHT22;2869;50.432;8.680;2022-07-25T03:55:23;18.60;99.90
5689;DHT22;2869;50.432;8.680;2022-07-25T03:57:50;18.60;99.90
5689;DHT22;2869;50.432;8.680;2022-07-25T04:00:16;18.50;99.90
5689;DHT22;2869;50.432;8.680;2022-07-25T04:02:43;18.50;99.90
5689;DHT22;2869;50.432;8.680;2022-07-25T04:05:10;18.40;99.90
5689;DHT22;2869;50.432;8.680;2022-07-25T04:07:37;18.40;99.90
5689;DHT22;2869;50.432;8.680;2022-07-25T04:10:04;18.40;99.90
5689;DHT22;2869;50.432;8.680;2022-07-25T04:12:33;18.40;99.90
5689;DHT22;2869;50.432;8.680;2022-07-25T04:15:00;18.50;99.90
5689;DHT22;2869;50.432;8.680;2022-07-25T04:17:26;18.70;99.90
5689;DHT22;2869;50.432;8.680;2022-07-25T04:19:53;18.80;99.90
5689;DHT22;2869;50.432;8.680;2022-07-25T04:22:20;18.90;99.90
5689;DHT22;2869;50.432;8.680;2022-07-25T04:24:46;19.00;99.90
5689;DHT22;2869;50.432;8.680;2022-07-25T04:27:13;19.10;99.90
5689;DHT22;2869;50.432;8.680;2022-07-25T04:29:41;19.10;99.90
5689;DHT22;2869;50.432;8.680;2022-07-25T04:32:08;19.20;99.90
5689;DHT22;2869;50.432;8.680;2022-07-25T04:34:34;19.20;99.90
5689;DHT22;2869;50.432;8.680;2022-07-25T04:37:01;19.20;99.90
5689;DHT22;2869;50.432;8.680;2022-07-25T04:39:28;19.20;99.90
5689;DHT22;2869;50.432;8.680;2022-07-25T04:41:54;19.20;99.90
5689;DHT22;2869;50.432;8.680;2022-07-25T04:44:21;19.20;99.90
5689;DHT22;2869;50.432;8.680;2022-07-25T04:46:50;19.20;99.90
5689;DHT22;2869;50.432;8.680;2022-07-25T04:49:16;19.20;99.90
5689;DHT22;2869;50.432;8.680;2022-07-25T04:51:43;19.20;99.90
5689;DHT22;2869;50.432;8.680;2022-07-25T04:54:10;19.20;99.90
5689;DHT22;2869;50.432;8.680;2022-07-25T04:56:36;19.20;99.90
5689;DHT22;2869;50.432;8.680;2022-07-25T04:59:03;19.20;99.90
5689;DHT22;2869;50.432;8.680;2022-07-25T05:01:30;19.30;99.90
5689;DHT22;2869;50.432;8.680;2022-07-25T05:03:58;19.40;99.90
5689;DHT22;2869;50.432;8.680;2022-07-25T05:06:25;19.50;99.90
5689;DHT22;2869;50.432;8.680;2022-07-25T05:08:52;19.60;99.90
5689;DHT22;2869;50.432;8.680;2022-07-25T05:11:18;19.70;99.90
5689;DHT22;2869;50.432;8.680;2022-07-25T05:13:45;20.00;99.90
5689;DHT22;2869;50.432;8.680;2022-07-25T05:16:12;20.00;99.90
5689;DHT22;2869;50.432;8.680;2022-07-25T05:18:38;20.00;99.90
5689;DHT22;2869;50.432;8.680;2022-07-25T05:21:09;20.10;99.90
5689;DHT22;2869;50.432;8.680;2022-07-25T05:23:35;20.20;99.90
5689;DHT22;2869;50.432;8.680;2022-07-25T05:26:02;20.30;99.90
5689;DHT22;2869;50.432;8.680;2022-07-25T05:28:28;20.40;99.90
5689;DHT22;2869;50.432;8.680;2022-07-25T05:30:55;20.50;99.90
5689;DHT22;2869;50.432;8.680;2022-07-25T05:33:22;20.50;99.90
5689;DHT22;2869;50.432;8.680;2022-07-25T05:35:49;20.70;99.90
5689;DHT22;2869;50.432;8.680;2022-07-25T05:38:17;20.70;99.90
5689;DHT22;2869;50.432;8.680;2022-07-25T05:40:43;20.80;99.90
5689;DHT22;2869;50.432;8.680;2022-07-25T05:43:10;20.80;99.90
5689;DHT22;2869;50.432;8.680;2022-07-25T05:45:37;20.90;99.90
5689;DHT22;2869;50.432;8.680;2022-07-25T05:48:04;21.10;99.90
5689;DHT22;2869;50.432;8.680;2022-07-25T05:50:31;21.20;99.90
5689;DHT22;2869;50.432;8.680;2022-07-25T05:52:57;21.40;99.90
5689;DHT22;2869;50.432;8.680;2022-07-25T05:55:25;21.60;99.90
5689;DHT22;2869;50.432;8.680;2022-07-25T05:57:52;21.70;99.90
5689;DHT22;2869;50.432;8.680;2022-07-25T06:00:19;21.90;99.90
5689;DHT22;2869;50.432;8.680;2022-07-25T06:02:45;22.00;99.90
5689;DHT22;2869;50.432;8.680;2022-07-25T06:05:12;22.20;99.90
5689;DHT22;2869;50.432;8.680;2022-07-25T06:07:38;22.40;99.90
5689;DHT22;2869;50.432;8.680;2022-07-25T06:10:06;22.60;99.90
5689;DHT22;2869;50.432;8.680;2022-07-25T06:12:34;22.70;99.90
5689;DHT22;2869;50.432;8.680;2022-07-25T06:15:00;22.80;99.90
5689;DHT22;2869;50.432;8.680;2022-07-25T06:17:27;22.80;99.90
5689;DHT22;2869;50.432;8.680;2022-07-25T06:19:54;22.90;99.90
5689;DHT22;2869;50.432;8.680;2022-07-25T06:22:20;23.00;99.90
5689;DHT22;2869;50.432;8.680;2022-07-25T06:24:47;23.20;99.90
5689;DHT22;2869;50.432;8.680;2022-07-25T06:27:14;23.30;99.90
5689;DHT22;2869;50.432;8.680;2022-07-25T06:29:42;23.50;99.90
5689;DHT22;2869;50.432;8.680;2022-07-25T06:32:08;23.70;99.90
5689;DHT22;2869;50.432;8.680;2022-07-25T06:34:35;23.90;99.90
5689;DHT22;2869;50.432;8.680;2022-07-25T06:37:01;24.00;99.90
5689;DHT22;2869;50.432;8.680;2022-07-25T06:39:28;24.10;99.90
5689;DHT22;2869;50.432;8.680;2022-07-25T06:41:55;24.10;99.90
5689;DHT22;2869;50.432;8.680;2022-07-25T06:44:24;24.20;99.90
5689;DHT22;2869;50.432;8.680;2022-07-25T06:46:52;24.40;99.90
5689;DHT22;2869;50.432;8.680;2022-07-25T06:49:18;24.50;99.90
5689;DHT22;2869;50.432;8.680;2022-07-25T06:51:45;24.70;99.90
5689;DHT22;2869;50.432;8.680;2022-07-25T06:54:12;24.90;99.90
5689;DHT22;2869;50.432;8.680;2022-07-25T06:56:40;24.90;99.90
5689;DHT22;2869;50.432;8.680;2022-07-25T06:59:06;24.90;99.90
5689;DHT22;2869;50.432;8.680;2022-07-25T07:01:33;24.80;99.90
5689;DHT22;2869;50.432;8.680;2022-07-25T07:04:01;24.90;99.90
5689;DHT22;2869;50.432;8.680;2022-07-25T07:06:28;25.00;99.90
5689;DHT22;2869;50.432;8.680;2022-07-25T07:08:55;25.10;99.90
5689;DHT22;2869;50.432;8.680;2022-07-25T07:11:21;25.30;99.90
5689;DHT22;2869;50.432;8.680;2022-07-25T07:13:48;25.50;99.90
5689;DHT22;2869;50.432;8.680;2022-07-25T07:16:15;25.60;99.90
5689;DHT22;2869;50.432;8.680;2022-07-25T07:18:42;25.60;99.90
5689;DHT22;2869;50.432;8.680;2022-07-25T07:21:10;25.50;99.90
5689;DHT22;2869;50.432;8.680;2022-07-25T07:23:36;25.50;99.90
5689;DHT22;2869;50.432;8.680;2022-07-25T07:26:03;25.30;99.90
5689;DHT22;2869;50.432;8.680;2022-07-25T07:28:29;25.40;99.90
5689;DHT22;2869;50.432;8.680;2022-07-25T07:30:56;25.50;99.90
5689;DHT22;2869;50.432;8.680;2022-07-25T07:33:23;25.70;99.90
5689;DHT22;2869;50.432;8.680;2022-07-25T07:35:49;25.90;99.90
5689;DHT22;2869;50.432;8.680;2022-07-25T07:38:17;25.90;99.90
5689;DHT22;2869;50.432;8.680;2022-07-25T07:40:44;26.20;99.90
5689;DHT22;2869;50.432;8.680;2022-07-25T07:43:11;26.30;99.90
5689;DHT22;2869;50.432;8.680;2022-07-25T07:45:38;26.40;99.90
5689;DHT22;2869;50.432;8.680;2022-07-25T07:48:05;26.50;99.90
5689;DHT22;2869;50.432;8.680;2022-07-25T07:50:32;26.70;99.90
5689;DHT22;2869;50.432;8.680;2022-07-25T07:52:59;26.80;99.90
5689;DHT22;2869;50.432;8.680;2022-07-25T07:55:29;26.90;99.90
5689;DHT22;2869;50.432;8.680;2022-07-25T07:58:10;27.00;99.90
5689;DHT22;2869;50.432;8.680;2022-07-25T08:00:37;27.10;99.90
5689;DHT22;2869;50.432;8.680;2022-07-25T08:03:05;27.20;99.90
5689;DHT22;2869;50.432;8.680;2022-07-25T08:05:35;27.20;99.90
5689;DHT22;2869;50.432;8.680;2022-07-25T08:08:03;27.20;99.90
5689;DHT22;2869;50.432;8.680;2022-07-25T08:10:34;27.40;99.90
5689;DHT22;2869;50.432;8.680;2022-07-25T08:13:02;27.70;99.90
5689;DHT22;2869;50.432;8.680;2022-07-25T08:15:36;28.00;99.90
5689;DHT22;2869;50.432;8.680;2022-07-25T08:18:03;28.20;99.90
5689;DHT22;2869;50.432;8.680;2022-07-25T08:20:31;28.30;99.90
5689;DHT22;2869;50.432;8.680;2022-07-25T08:22:57;28.40;99.90
5689;DHT22;2869;50.432;8.680;2022-07-25T08:25:24;28.50;99.90
5689;DHT22;2869;50.432;8.680;2022-07-25T08:27:53;28.70;99.90
5689;DHT22;2869;50.432;8.680;2022-07-25T08:30:19;28.90;99.90
5689;DHT22;2869;50.432;8.680;2022-07-25T08:32:51;29.00;99.90
5689;DHT22;2869;50.432;8.680;2022-07-25T08:35:19;29.20;99.90
5689;DHT22;2869;50.432;8.680;2022-07-25T08:37:46;29.50;99.90
5689;DHT22;2869;50.432;8.680;2022-07-25T08:40:14;29.40;99.90
5689;DHT22;2869;50.432;8.680;2022-07-25T08:42:41;29.50;99.90
5689;DHT22;2869;50.432;8.680;2022-07-25T08:45:11;29.50;99.90
5689;DHT22;2869;50.432;8.680;2022-07-25T08:47:39;29.80;99.90
5689;DHT22;2869;50.432;8.680;2022-07-25T08:50:07;29.90;99.90
5689;DHT22;2869;50.432;8.680;2022-07-25T08:52:35;30.00;99.90
5689;DHT22;2869;50.432;8.680;2022-07-25T08:55:02;30.10;99.90
5689;DHT22;2869;50.432;8.680;2022-07-25T08:57:29;30.30;99.90
5689;DHT22;2869;50.432;8.680;2022-07-25T08:59:57;30.50;99.90
5689;DHT22;2869;50.432;8.680;2022-07-25T09:02:26;30.80;99.90
5689;DHT22;2869;50.432;8.680;2022-07-25T09:04:53;31.00;99.90
5689;DHT22;2869;50.432;8.680;2022-07-25T09:07:31;31.00;99.90
5689;DHT22;2869;50.432;8.680;2022-07-25T09:09:58;31.00;99.90
5689;DHT22;2869;50.432;8.680;2022-07-25T09:12:25;31.20;99.90
5689;DHT22;2869;50.432;8.680;2022-07-25T09:14:53;31.40;99.90
5689;DHT22;2869;50.432;8.680;2022-07-25T09:17:20;31.70;99.90
5689;DHT22;2869;50.432;8.680;2022-07-25T09:19:52;31.90;99.90
5689;DHT22;2869;50.432;8.680;2022-07-25T09:22:19;32.10;99.90
5689;DHT22;2869;50.432;8.680;2022-07-25T09:24:46;32.20;99.90
5689;DHT22;2869;50.432;8.680;2022-07-25T09:27:12;32.20;99.90
5689;DHT22;2869;50.432;8.680;2022-07-25T09:29:40;32.40;99.90
5689;DHT22;2869;50.432;8.680;2022-07-25T09:32:15;32.30;99.90
5689;DHT22;2869;50.432;8.680;2022-07-25T09:34:45;32.30;99.90
5689;DHT22;2869;50.432;8.680;2022-07-25T09:37:15;32.20;99.90
5689;DHT22;2869;50.432;8.680;2022-07-25T09:39:44;32.10;99.90
5689;DHT22;2869;50.432;8.680;2022-07-25T09:42:15;31.90;99.90
5689;DHT22;2869;50.432;8.680;2022-07-25T09:44:42;31.70;99.90
5689;DHT22;2869;50.432;8.680;2022-07-25T09:47:09;31.60;99.90
5689;DHT22;2869;50.432;8.680;2022-07-25T09:49:39;31.80;99.90
5689;DHT22;2869;50.432;8.680;2022-07-25T09:52:06;31.90;99.90
5689;DHT22;2869;50.432;8.680;2022-07-25T09:54:35;31.90;99.90
5689;DHT22;2869;50.432;8.680;2022-07-25T09:57:01;31.80;99.90
5689;DHT22;2869;50.432;8.680;2022-07-25T09:59:28;31.70;99.90
5689;DHT22;2869;50.432;8.680;2022-07-25T10:02:02;31.70;99.90
5689;DHT22;2869;50.432;8.680;2022-07-25T10:04:43;31.70;99.90
5689;DHT22;2869;50.432;8.680;2022-07-25T10:07:11;31.80;99.90
5689;DHT22;2869;50.432;8.680;2022-07-25T10:09:43;31.60;99.90
5689;DHT22;2869;50.432;8.680;2022-07-25T10:12:11;31.60;99.90
5689;DHT22;2869;50.432;8.680;2022-07-25T10:14:39;31.70;99.90
5689;DHT22;2869;50.432;8.680;2022-07-25T10:17:06;31.70;99.90
5689;DHT22;2869;50.432;8.680;2022-07-25T10:19:43;31.60;99.90
5689;DHT22;2869;50.432;8.680;2022-07-25T10:22:10;31.60;99.90
5689;DHT22;2869;50.432;8.680;2022-07-25T10:24:37;31.60;99.90
5689;DHT22;2869;50.432;8.680;2022-07-25T10:27:09;31.90;99.90
5689;DHT22;2869;50.432;8.680;2022-07-25T10:29:36;32.00;99.90
5689;DHT22;2869;50.432;8.680;2022-07-25T10:32:07;32.10;99.90
5689;DHT22;2869;50.432;8.680;2022-07-25T10:34:34;32.20;99.90
5689;DHT22;2869;50.432;8.680;2022-07-25T10:37:09;32.40;99.90
5689;DHT22;2869;50.432;8.680;2022-07-25T10:39:37;32.80;99.90
5689;DHT22;2869;50.432;8.680;2022-07-25T10:42:04;33.30;99.50
5689;DHT22;2869;50.432;8.680;2022-07-25T10:44:41;33.60;98.70
5689;DHT22;2869;50.432;8.680;2022-07-25T10:47:09;33.70;97.90
5689;DHT22;2869;50.432;8.680;2022-07-25T10:49:38;33.80;97.40
5689;DHT22;2869;50.432;8.680;2022-07-25T10:52:05;33.80;96.40
5689;DHT22;2869;50.432;8.680;2022-07-25T10:54:33;33.90;97.30
5689;DHT22;2869;50.432;8.680;2022-07-25T10:57:00;34.10;94.70
5689;DHT22;2869;50.432;8.680;2022-07-25T10:59:28;34.20;93.30
5689;DHT22;2869;50.432;8.680;2022-07-25T11:01:57;34.30;92.00
5689;DHT22;2869;50.432;8.680;2022-07-25T11:04:24;34.40;91.10
5689;DHT22;2869;50.432;8.680;2022-07-25T11:06:52;34.20;90.80
5689;DHT22;2869;50.432;8.680;2022-07-25T11:09:20;34.20;91.10
5689;DHT22;2869;50.432;8.680;2022-07-25T11:11:49;34.20;90.50
5689;DHT22;2869;50.432;8.680;2022-07-25T11:14:19;34.40;90.60
5689;DHT22;2869;50.432;8.680;2022-07-25T11:16:47;34.40;90.90
5689;DHT22;2869;50.432;8.680;2022-07-25T11:19:17;34.60;90.50
5689;DHT22;2869;50.432;8.680;2022-07-25T11:21:45;34.70;89.50
5689;DHT22;2869;50.432;8.680;2022-07-25T11:24:12;34.80;89.80
5689;DHT22;2869;50.432;8.680;2022-07-25T11:26:47;34.90;90.00
5689;DHT22;2869;50.432;8.680;2022-07-25T11:29:18;34.90;90.20
5689;DHT22;2869;50.432;8.680;2022-07-25T11:31:51;35.00;87.50
5689;DHT22;2869;50.432;8.680;2022-07-25T11:34:22;35.00;88.50
5689;DHT22;2869;50.432;8.680;2022-07-25T11:36:50;35.20;89.70
5689;DHT22;2869;50.432;8.680;2022-07-25T11:39:17;35.30;88.90
5689;DHT22;2869;50.432;8.680;2022-07-25T11:41:44;35.20;88.30
5689;DHT22;2869;50.432;8.680;2022-07-25T11:44:10;35.30;90.10
5689;DHT22;2869;50.432;8.680;2022-07-25T11:46:41;35.50;89.50
5689;DHT22;2869;50.432;8.680;2022-07-25T11:49:09;35.30;89.50
5689;DHT22;2869;50.432;8.680;2022-07-25T11:51:37;35.00;90.00
5689;DHT22;2869;50.432;8.680;2022-07-25T11:54:09;34.70;90.40
5689;DHT22;2869;50.432;8.680;2022-07-25T11:56:38;34.50;90.80
5689;DHT22;2869;50.432;8.680;2022-07-25T11:59:05;34.30;90.50
5689;DHT22;2869;50.432;8.680;2022-07-25T12:01:33;34.40;90.40
5689;DHT22;2869;50.432;8.680;2022-07-25T12:04:10;34.40;90.40
5689;DHT22;2869;50.432;8.680;2022-07-25T12:06:40;34.40;90.30
5689;DHT22;2869;50.432;8.680;2022-07-25T12:09:14;34.40;90.30
5689;DHT22;2869;50.432;8.680;2022-07-25T12:11:41;34.30;90.50
5689;DHT22;2869;50.432;8.680;2022-07-25T12:14:09;34.20;91.00
5689;DHT22;2869;50.432;8.680;2022-07-25T12:16:36;34.20;91.20
5689;DHT22;2869;50.432;8.680;2022-07-25T12:19:03;34.20;90.90
5689;DHT22;2869;50.432;8.680;2022-07-25T12:21:30;34.10;90.70
5689;DHT22;2869;50.432;8.680;2022-07-25T12:23:58;34.20;90.80
5689;DHT22;2869;50.432;8.680;2022-07-25T12:26:25;34.20;91.00
5689;DHT22;2869;50.432;8.680;2022-07-25T12:28:51;34.20;90.90
5689;DHT22;2869;50.432;8.680;2022-07-25T12:31:18;34.00;91.40
5689;DHT22;2869;50.432;8.680;2022-07-25T12:33:45;33.90;91.50
5689;DHT22;2869;50.432;8.680;2022-07-25T12:36:13;34.00;91.60
5689;DHT22;2869;50.432;8.680;2022-07-25T12:38:40;34.00;90.90
5689;DHT22;2869;50.432;8.680;2022-07-25T12:41:08;34.10;90.30
5689;DHT22;2869;50.432;8.680;2022-07-25T12:43:34;34.10;90.50
5689;DHT22;2869;50.432;8.680;2022-07-25T12:46:01;34.20;90.60
5689;DHT22;2869;50.432;8.680;2022-07-25T12:48:28;34.20;89.70
5689;DHT22;2869;50.432;8.680;2022-07-25T12:50:55;34.00;89.90
5689;DHT22;2869;50.432;8.680;2022-07-25T12:53:21;33.80;89.90
5689;DHT22;2869;50.432;8.680;2022-07-25T12:55:49;33.60;90.30
5689;DHT22;2869;50.432;8.680;2022-07-25T12:58:17;33.40;90.50
5689;DHT22;2869;50.432;8.680;2022-07-25T13:00:44;33.20;90.70
5689;DHT22;2869;50.432;8.680;2022-07-25T13:03:12;33.00;90.90
5689;DHT22;2869;50.432;8.680;2022-07-25T13:05:39;32.80;91.20
5689;DHT22;2869;50.432;8.680;2022-07-25T13:08:06;32.70;91.50
5689;DHT22;2869;50.432;8.680;2022-07-25T13:10:33;32.60;92.10
5689;DHT22;2869;50.432;8.680;2022-07-25T13:12:59;32.30;92.00
5689;DHT22;2869;50.432;8.680;2022-07-25T13:15:27;32.20;92.10
5689;DHT22;2869;50.432;8.680;2022-07-25T13:17:54;32.40;92.70
5689;DHT22;2869;50.432;8.680;2022-07-25T13:20:21;32.30;92.90
5689;DHT22;2869;50.432;8.680;2022-07-25T13:22:48;32.20;93.10
5689;DHT22;2869;50.432;8.680;2022-07-25T13:25:15;31.90;93.70
5689;DHT22;2869;50.432;8.680;2022-07-25T13:27:42;31.90;93.80
5689;DHT22;2869;50.432;8.680;2022-07-25T13:30:09;31.90;93.90
5689;DHT22;2869;50.432;8.680;2022-07-25T13:32:37;32.10;94.10
5689;DHT22;2869;50.432;8.680;2022-07-25T13:35:04;32.50;94.30
5689;DHT22;2869;50.432;8.680;2022-07-25T13:37:32;33.20;92.90
5689;DHT22;2869;50.432;8.680;2022-07-25T13:39:58;33.50;92.40
5689;DHT22;2869;50.432;8.680;2022-07-25T13:42:25;33.70;91.70
5689;DHT22;2869;50.432;8.680;2022-07-25T13:44:51;33.90;91.10
5689;DHT22;2869;50.432;8.680;2022-07-25T13:47:18;34.40;91.70
5689;DHT22;2869;50.432;8.680;2022-07-25T13:49:46;34.90;91.00
5689;DHT22;2869;50.432;8.680;2022-07-25T13:52:13;35.20;90.80
5689;DHT22;2869;50.432;8.680;2022-07-25T13:54:40;35.30;90.50
5689;DHT22;2869;50.432;8.680;2022-07-25T13:57:06;35.20;90.20
5689;DHT22;2869;50.432;8.680;2022-07-25T13:59:33;35.40;90.70
5689;DHT22;2869;50.432;8.680;2022-07-25T14:02:00;35.20;90.50
5689;DHT22;2869;50.432;8.680;2022-07-25T14:04:27;35.40;90.30
5689;DHT22;2869;50.432;8.680;2022-07-25T14:06:55;35.50;90.40
5689;DHT22;2869;50.432;8.680;2022-07-25T14:09:22;35.60;90.00
5689;DHT22;2869;50.432;8.680;2022-07-25T14:11:49;35.80;88.40
5689;DHT22;2869;50.432;8.680;2022-07-25T14:14:16;35.40;88.50
5689;DHT22;2869;50.432;8.680;2022-07-25T14:16:42;35.20;88.60
5689;DHT22;2869;50.432;8.680;2022-07-25T14:19:09;35.50;88.50
5689;DHT22;2869;50.432;8.680;2022-07-25T14:21:36;35.40;87.80
5689;DHT22;2869;50.432;8.680;2022-07-25T14:24:04;35.30;86.80
5689;DHT22;2869;50.432;8.680;2022-07-25T14:26:32;35.40;88.30
5689;DHT22;2869;50.432;8.680;2022-07-25T14:28:59;35.60;88.00
5689;DHT22;2869;50.432;8.680;2022-07-25T14:31:26;36.10;86.90
5689;DHT22;2869;50.432;8.680;2022-07-25T14:33:52;36.00;85.00
5689;DHT22;2869;50.432;8.680;2022-07-25T14:36:19;35.80;85.40
5689;DHT22;2869;50.432;8.680;2022-07-25T14:38:46;35.40;86.50
5689;DHT22;2869;50.432;8.680;2022-07-25T14:41:14;35.50;87.60
5689;DHT22;2869;50.432;8.680;2022-07-25T14:43:41;35.60;86.30
5689;DHT22;2869;50.432;8.680;2022-07-25T14:46:08;35.40;87.00
5689;DHT22;2869;50.432;8.680;2022-07-25T14:48:35;35.10;86.50
5689;DHT22;2869;50.432;8.680;2022-07-25T14:51:03;34.70;87.00
5689;DHT22;2869;50.432;8.680;2022-07-25T14:53:29;34.30;87.90
5689;DHT22;2869;50.432;8.680;2022-07-25T14:55:56;34.00;88.90
5689;DHT22;2869;50.432;8.680;2022-07-25T14:58:25;33.60;89.90
5689;DHT22;2869;50.432;8.680;2022-07-25T15:00:51;33.40;90.30
5689;DHT22;2869;50.432;8.680;2022-07-25T15:03:18;33.40;90.50
5689;DHT22;2869;50.432;8.680;2022-07-25T15:05:45;33.30;90.50
5689;DHT22;2869;50.432;8.680;2022-07-25T15:08:12;33.20;90.30
5689;DHT22;2869;50.432;8.680;2022-07-25T15:10:38;32.90;90.50
5689;DHT22;2869;50.432;8.680;2022-07-25T15:13:05;32.80;91.10
5689;DHT22;2869;50.432;8.680;2022-07-25T15:15:33;32.50;91.30
5689;DHT22;2869;50.432;8.680;2022-07-25T15:18:00;32.40;91.50
5689;DHT22;2869;50.432;8.680;2022-07-25T15:20:27;32.30;91.60
5689;DHT22;2869;50.432;8.680;2022-07-25T15:22:54;32.40;91.70
5689;DHT22;2869;50.432;8.680;2022-07-25T15:25:20;32.40;92.00
5689;DHT22;2869;50.432;8.680;2022-07-25T15:27:47;32.40;91.80
5689;DHT22;2869;50.432;8.680;2022-07-25T15:30:14;32.40;92.00
5689;DHT22;2869;50.432;8.680;2022-07-25T15:32:42;32.40;91.60
5689;DHT22;2869;50.432;8.680;2022-07-25T15:35:10;32.30;91.70
5689;DHT22;2869;50.432;8.680;2022-07-25T15:37:36;32.20;91.70
5689;DHT22;2869;50.432;8.680;2022-07-25T15:40:04;32.20;91.70
5689;DHT22;2869;50.432;8.680;2022-07-25T15:42:31;32.20;91.80
5689;DHT22;2869;50.432;8.680;2022-07-25T15:44:58;32.10;92.00
5689;DHT22;2869;50.432;8.680;2022-07-25T15:47:25;32.10;92.00
5689;DHT22;2869;50.432;8.680;2022-07-25T15:49:53;32.20;91.40
5689;DHT22;2869;50.432;8.680;2022-07-25T15:52:19;32.20;91.70
5689;DHT22;2869;50.432;8.680;2022-07-25T15:54:49;32.30;91.30
5689;DHT22;2869;50.432;8.680;2022-07-25T15:57:16;32.30;91.30
5689;DHT22;2869;50.432;8.680;2022-07-25T15:59:42;32.40;91.00
5689;DHT22;2869;50.432;8.680;2022-07-25T16:02:09;32.60;91.90